createdAt,value
2022-12-01T00:01:43.666Z,22.80
2022-12-01T00:04:12.129Z,23.13
2022-12-01T00:06:40.700Z,24.23
2022-12-01T00:09:28.866Z,23.87
2022-12-01T00:11:58.873Z,28.53
2022-12-01T00:14:27.581Z,30.73
2022-12-01T00:16:56.216Z,26.10
2022-12-01T00:19:39.620Z,28.63
2022-12-01T00:22:08.257Z,28.03
2022-12-01T00:24:36.754Z,25.90
2022-12-01T00:27:06.807Z,26.67
2022-12-01T00:29:36.235Z,25.47
2022-12-01T00:32:06.101Z,22.67
2022-12-01T00:34:35.077Z,24.53
2022-12-01T00:37:03.725Z,32.23
2022-12-01T00:39:32.112Z,35.23
2022-12-01T00:42:00.592Z,30.17
2022-12-01T00:44:30.497Z,33.00
2022-12-01T00:46:59.112Z,32.93
2022-12-01T00:49:27.634Z,34.33
2022-12-01T00:51:56.031Z,31.83
2022-12-01T00:54:24.695Z,29.80
2022-12-01T00:56:53.196Z,24.87
2022-12-01T00:59:21.685Z,25.73
2022-12-01T01:01:52.131Z,24.60
2022-12-01T01:04:21.176Z,24.47
2022-12-01T01:06:49.980Z,22.90
2022-12-01T01:09:18.860Z,22.70
2022-12-01T01:11:47.376Z,21.60
2022-12-01T01:14:16.807Z,19.57
2022-12-01T01:16:45.432Z,19.97
2022-12-01T01:19:15.410Z,21.27
2022-12-01T01:21:43.934Z,18.67
2022-12-01T01:24:27.346Z,18.43
2022-12-01T01:26:56.033Z,17.70
2022-12-01T01:29:24.512Z,17.47
2022-12-01T01:31:53.571Z,17.50
2022-12-01T01:34:23.560Z,19.33
2022-12-01T01:36:52.091Z,19.60
2022-12-01T01:39:21.267Z,18.50
2022-12-01T01:41:49.834Z,18.30
2022-12-01T01:44:53.448Z,16.90
2022-12-01T01:47:26.721Z,18.40
2022-12-01T01:49:59.492Z,16.20
2022-12-01T01:52:29.401Z,18.50
2022-12-01T01:54:58.213Z,17.37
2022-12-01T01:57:43.789Z,16.60
2022-12-01T02:00:15.519Z,17.57
2022-12-01T02:02:47.163Z,19.53
2022-12-01T02:05:21.449Z,16.83
2022-12-01T02:07:51.426Z,16.80
2022-12-01T02:10:23.452Z,19.23
2022-12-01T02:13:04.926Z,18.10
2022-12-01T02:15:53.282Z,15.83
2022-12-01T02:18:27.602Z,16.73
2022-12-01T02:21:17.011Z,18.00
2022-12-01T02:24:25.243Z,16.93
2022-12-01T02:27:02.200Z,16.10
2022-12-01T02:30:03.310Z,15.07
2022-12-01T02:32:41.234Z,16.43
2022-12-01T02:35:16.292Z,16.97
2022-12-01T02:37:51.422Z,17.17
2022-12-01T02:43:15.647Z,17.50
2022-12-01T02:45:50.387Z,16.70
2022-12-01T02:48:25.600Z,16.47
2022-12-01T02:50:56.157Z,17.27
2022-12-01T02:53:24.782Z,17.07
2022-12-01T02:55:54.971Z,16.53
2022-12-01T02:58:37.611Z,16.10
2022-12-01T03:01:32.541Z,16.87
2022-12-01T03:04:13.693Z,18.50
2022-12-01T03:06:49.996Z,15.27
2022-12-01T03:09:31.301Z,17.40
2022-12-01T03:12:21.221Z,16.63
2022-12-01T03:15:03.512Z,15.60
2022-12-01T03:17:41.491Z,18.10
2022-12-01T03:20:17.689Z,17.53
2022-12-01T03:22:51.158Z,16.93
2022-12-01T03:25:23.122Z,18.13
2022-12-01T03:28:20.101Z,18.07
2022-12-01T03:30:47.620Z,16.87
2022-12-01T03:33:21.201Z,19.33
2022-12-01T03:35:57.071Z,18.53
2022-12-01T03:38:27.482Z,18.73
2022-12-01T03:40:59.371Z,20.03
2022-12-01T03:43:32.635Z,19.73
2022-12-01T03:46:06.921Z,17.73
2022-12-01T03:48:36.032Z,18.23
2022-12-01T03:51:14.095Z,18.70
2022-12-01T03:53:51.882Z,18.50
2022-12-01T03:56:25.708Z,17.00
2022-12-01T03:58:58.052Z,18.97
2022-12-01T04:01:28.400Z,19.83
2022-12-01T04:03:56.831Z,18.00
2022-12-01T04:06:26.671Z,19.37
2022-12-01T04:09:15.524Z,19.77
2022-12-01T04:12:01.179Z,18.77
2022-12-01T04:14:30.457Z,18.20
2022-12-01T04:16:59.180Z,18.43
2022-12-01T04:19:27.741Z,20.37
2022-12-01T04:21:57.632Z,20.17
2022-12-01T04:24:26.255Z,21.47
2022-12-01T04:26:54.697Z,19.90
2022-12-01T04:29:23.448Z,19.07
2022-12-01T04:31:52.161Z,16.73
2022-12-01T04:34:20.788Z,20.20
2022-12-01T04:36:49.465Z,21.27
2022-12-01T04:39:21.842Z,20.13
2022-12-01T04:41:50.410Z,20.37
2022-12-01T04:44:18.885Z,19.87
2022-12-01T04:46:47.330Z,17.97
2022-12-01T04:49:16.138Z,20.53
2022-12-01T04:51:44.516Z,19.63
2022-12-01T04:54:13.228Z,21.30
2022-12-01T04:56:44.387Z,19.13
2022-12-01T04:59:13.255Z,18.87
2022-12-01T05:06:16.512Z,18.87
2022-12-01T05:08:45.082Z,19.67
2022-12-01T05:11:15.554Z,20.00
2022-12-01T05:13:48.647Z,20.13
2022-12-01T05:16:19.216Z,20.73
2022-12-01T05:18:50.704Z,19.93
2022-12-01T05:21:18.641Z,19.53
2022-12-01T05:23:47.204Z,18.97
2022-12-01T05:26:15.860Z,19.43
2022-12-01T05:28:45.809Z,19.87
2022-12-01T05:31:14.551Z,21.43
2022-12-01T05:33:42.945Z,22.27
2022-12-01T05:36:11.513Z,19.57
2022-12-01T05:38:39.923Z,19.37
2022-12-01T05:41:08.772Z,21.93
2022-12-01T05:43:37.237Z,23.17
2022-12-01T05:46:07.253Z,22.27
2022-12-01T05:48:35.826Z,20.37
2022-12-01T05:51:10.811Z,22.47
2022-12-01T05:53:39.402Z,23.13
2022-12-01T05:56:15.548Z,22.33
2022-12-01T05:58:43.973Z,23.13
2022-12-01T06:01:13.804Z,24.47
2022-12-01T06:03:42.565Z,23.20
2022-12-01T06:06:10.950Z,26.37
2022-12-01T06:08:39.316Z,22.60
2022-12-01T06:11:08.176Z,24.43
2022-12-01T06:13:36.883Z,24.87
2022-12-01T06:16:07.259Z,23.83
2022-12-01T06:18:38.961Z,23.80
2022-12-01T06:21:08.392Z,22.87
2022-12-01T06:23:37.038Z,24.73
2022-12-01T06:26:06.078Z,23.43
2022-12-01T06:28:34.536Z,22.97
2022-12-01T06:31:03.837Z,23.10
2022-12-01T06:33:32.820Z,23.90
2022-12-01T06:36:05.243Z,24.93
2022-12-01T06:38:35.888Z,23.43
2022-12-01T06:41:08.265Z,22.33
2022-12-01T06:43:37.725Z,24.83
2022-12-01T22:31:14.471Z,63.83
2022-12-01T22:33:43.713Z,57.87
2022-12-01T22:36:21.093Z,65.20
2022-12-01T22:38:49.812Z,64.23
2022-12-01T22:41:20.780Z,62.47
2022-12-01T22:43:50.685Z,59.83
2022-12-01T22:46:30.322Z,53.73
2022-12-01T22:49:00.919Z,58.17
2022-12-01T22:51:38.976Z,55.93
2022-12-01T22:54:27.894Z,47.90
2022-12-01T22:57:04.275Z,47.20
2022-12-01T22:59:35.266Z,52.13
2022-12-01T23:02:17.995Z,48.73
2022-12-01T23:04:50.186Z,48.93
2022-12-01T23:07:29.179Z,50.33
2022-12-01T23:10:02.549Z,53.43
2022-12-01T23:12:32.480Z,49.33
2022-12-01T23:15:08.632Z,50.57
2022-12-01T23:17:40.945Z,41.73
2022-12-01T23:20:30.848Z,42.93
2022-12-01T23:23:02.028Z,41.87
2022-12-01T23:25:30.580Z,39.27
2022-12-01T23:28:02.255Z,40.80
2022-12-01T23:30:30.695Z,42.30
2022-12-01T23:33:12.136Z,47.87
2022-12-01T23:35:45.137Z,48.77
2022-12-01T23:38:18.100Z,46.73
2022-12-01T23:40:47.037Z,47.83
2022-12-01T23:43:20.105Z,45.37
2022-12-01T23:45:51.801Z,47.33
2022-12-01T23:48:26.477Z,46.57
2022-12-01T23:50:55.909Z,45.50
2022-12-01T23:53:40.166Z,43.97
2022-12-01T23:56:13.571Z,50.27
2022-12-01T23:58:42.038Z,45.73
